Time;durP1;ratioP1;P1;durP2;ratioP2;P2;SDS_P1;SDS_P2;PMS_P1;PMS_P2;Temp;Humidity;BMP_temperature;BMP_pressure;BME280_temperature;BME280_humidity;BME280_pressure;Samples;Min_cycle;Max_cycle;Signal;HPM_P1;HPM_P2
2022/03/10 00:02:15;;;;;;;18.53;13.37;;;3.60;80.40;;;;;;4971444;28;20790;-72
2022/03/10 00:04:41;;;;;;;19.07;13.33;;;3.50;80.70;;;;;;4999719;28;20105;-72
2022/03/10 00:07:07;;;;;;;17.90;13.33;;;3.50;80.70;;;;;;4968199;28;20038;-72
2022/03/10 00:09:33;;;;;;;18.23;13.23;;;3.50;81.00;;;;;;4984043;28;20058;-72
2022/03/10 00:12:01;;;;;;;18.20;13.87;;;3.50;81.50;;;;;;4984345;28;20161;-72
2022/03/10 00:14:27;;;;;;;16.93;13.00;;;3.50;82.50;;;;;;4974144;28;20076;-72
2022/03/10 00:16:53;;;;;;;15.93;13.30;;;3.40;82.50;;;;;;4985390;28;20394;-72
2022/03/10 00:19:19;;;;;;;17.60;13.90;;;3.40;82.40;;;;;;4963284;28;20042;-72
2022/03/10 00:21:46;;;;;;;16.30;13.20;;;3.50;82.30;;;;;;4998294;28;20120;-72
2022/03/10 00:24:12;;;;;;;17.97;13.70;;;3.60;82.20;;;;;;4981306;28;20077;-72
2022/03/10 00:26:38;;;;;;;16.77;13.37;;;3.50;82.70;;;;;;4991403;28;20053;-72
2022/03/10 00:29:05;;;;;;;15.47;12.37;;;3.50;82.90;;;;;;5005490;28;20092;-74
2022/03/10 00:31:31;;;;;;;19.83;13.43;;;3.60;83.20;;;;;;4977644;28;20050;-73
2022/03/10 00:33:57;;;;;;;17.10;13.63;;;3.50;83.00;;;;;;4990945;28;20046;-73
2022/03/10 00:36:23;;;;;;;18.27;14.10;;;3.60;83.60;;;;;;4989246;28;20045;-73
2022/03/10 00:38:50;;;;;;;16.97;13.50;;;3.50;83.90;;;;;;4988091;28;20046;-73
2022/03/10 00:41:16;;;;;;;16.77;13.33;;;3.50;83.60;;;;;;4996105;28;20569;-74
2022/03/10 00:43:42;;;;;;;17.40;14.00;;;3.60;83.70;;;;;;4993263;28;20046;-73
2022/03/10 00:46:07;;;;;;;18.87;13.07;;;3.60;83.20;;;;;;4970303;28;20049;-73
2022/03/10 00:48:33;;;;;;;17.50;14.03;;;3.60;82.90;;;;;;5008709;28;20058;-73
2022/03/10 00:50:59;;;;;;;16.43;14.20;;;3.60;82.60;;;;;;4994353;28;20617;-74
2022/03/10 00:53:28;;;;;;;18.63;13.73;;;3.60;82.50;;;;;;5001146;28;20037;-74
2022/03/10 00:55:54;;;;;;;17.40;13.33;;;3.60;82.90;;;;;;4974038;28;20041;-73
2022/03/10 00:58:20;;;;;;;19.23;14.77;;;3.60;83.10;;;;;;4992894;28;20515;-72
2022/03/10 01:00:46;;;;;;;17.60;14.80;;;3.50;84.40;;;;;;5001923;28;20065;-73
2022/03/10 01:03:12;;;;;;;17.97;15.07;;;3.50;84.20;;;;;;4988274;28;20038;-72
2022/03/10 01:05:37;;;;;;;21.83;15.13;;;3.40;84.20;;;;;;4985607;28;20046;-73
2022/03/10 01:08:03;;;;;;;17.67;13.93;;;3.40;84.70;;;;;;4959283;28;20459;-71
2022/03/10 01:10:29;;;;;;;17.27;14.57;;;3.40;85.50;;;;;;5003800;28;20162;-72
2022/03/10 01:12:58;;;;;;;18.53;13.97;;;3.40;87.00;;;;;;5004045;28;20517;-71
2022/03/10 01:15:26;;;;;;;20.23;14.90;;;3.30;87.40;;;;;;4976036;28;20050;-71
2022/03/10 01:17:52;;;;;;;16.63;13.83;;;3.20;88.10;;;;;;4979367;28;20053;-72
2022/03/10 01:20:19;;;;;;;18.30;14.87;;;3.20;88.60;;;;;;4997370;28;20804;-71
2022/03/10 01:22:46;;;;;;;21.73;15.03;;;3.10;89.30;;;;;;4991031;28;20042;-72
2022/03/10 01:25:12;;;;;;;18.00;14.47;;;3.10;89.10;;;;;;4966111;28;20046;-71
2022/03/10 01:27:38;;;;;;;22.30;15.97;;;3.10;89.40;;;;;;4992602;28;20046;-71
2022/03/10 01:30:06;;;;;;;17.87;14.20;;;3.10;89.30;;;;;;4994176;28;20138;-72
2022/03/10 01:32:34;;;;;;;18.57;15.87;;;3.10;89.70;;;;;;5013644;28;20049;-72
2022/03/10 01:35:01;;;;;;;20.47;15.43;;;3.10;90.00;;;;;;4977891;28;20583;-73
2022/03/10 01:37:28;;;;;;;18.03;15.10;;;3.00;90.20;;;;;;5004935;28;20072;-73
2022/03/10 01:39:55;;;;;;;19.27;15.03;;;3.00;90.40;;;;;;4973747;28;20125;-73
2022/03/10 01:42:22;;;;;;;22.60;16.53;;;2.90;90.80;;;;;;4972904;28;20062;-73
2022/03/10 01:44:57;;;;;;;19.83;15.93;;;2.80;91.20;;;;;;5002128;28;20558;-73
2022/03/10 01:54:46;;;;;;;18.03;15.13;;;2.70;92.60;;;;;;4993907;28;20053;-73
2022/03/10 01:57:12;;;;;;;21.83;16.17;;;2.70;92.70;;;;;;4987270;28;20053;-73
2022/03/10 01:59:41;;;;;;;19.87;16.37;;;2.60;92.90;;;;;;4993687;28;20568;-73
2022/03/10 02:02:08;;;;;;;19.17;15.90;;;2.70;93.30;;;;;;4997803;28;20046;-73
2022/03/10 02:04:34;;;;;;;22.93;16.90;;;2.70;93.40;;;;;;4991693;28;20137;-73
2022/03/10 02:07:06;;;;;;;22.63;16.47;;;2.70;93.40;;;;;;4991868;28;20125;-73
2022/03/10 02:12:17;;;;;;;21.43;17.30;;;2.70;93.30;;;;;;5010627;28;20070;-73
2022/03/10 02:17:28;;;;;;;18.57;15.70;;;2.60;93.50;;;;;;4997227;28;20049;-73
2022/03/10 02:19:58;;;;;;;21.83;16.57;;;2.50;93.70;;;;;;4987802;28;20596;-73
2022/03/10 02:22:28;;;;;;;22.73;17.08;;;2.50;93.80;;;;;;4996114;28;20154;-72
2022/03/10 02:24:54;;;;;;;20.17;16.05;;;2.50;94.00;;;;;;4981754;28;20050;-72
2022/03/10 02:27:23;;;;;;;19.77;16.50;;;2.50;94.00;;;;;;4989745;28;20062;-71
2022/03/10 02:29:51;;;;;;;21.83;17.20;;;2.50;94.10;;;;;;4986630;28;20381;-71
2022/03/10 02:32:17;;;;;;;23.13;16.80;;;2.50;94.40;;;;;;4992583;28;20104;-71
2022/03/10 02:34:43;;;;;;;21.87;17.00;;;2.50;94.90;;;;;;4982783;28;20082;-72
2022/03/10 02:37:10;;;;;;;21.73;17.33;;;2.50;94.70;;;;;;4996042;28;20042;-71
2022/03/10 02:39:37;;;;;;;22.60;17.03;;;2.50;94.70;;;;;;5000123;28;20037;-71
2022/03/10 02:42:04;;;;;;;20.97;16.67;;;2.50;94.70;;;;;;4993467;28;20046;-71
2022/03/10 02:44:29;;;;;;;21.17;17.13;;;2.50;94.90;;;;;;4976563;28;20050;-72
2022/03/10 02:46:58;;;;;;;21.20;16.83;;;2.50;94.80;;;;;;4978146;28;20050;-72
2022/03/10 02:49:24;;;;;;;21.43;16.30;;;2.50;94.70;;;;;;4994367;28;20049;-72
2022/03/10 02:51:50;;;;;;;20.93;16.50;;;2.40;94.80;;;;;;4972540;28;20050;-72
2022/03/10 02:54:17;;;;;;;19.73;16.70;;;2.50;94.80;;;;;;4969309;28;20058;-72
2022/03/10 02:56:45;;;;;;;24.13;16.63;;;2.50;95.00;;;;;;4957895;28;20160;-72
2022/03/10 02:59:11;;;;;;;21.47;17.73;;;2.40;95.10;;;;;;4977180;28;20038;-72
2022/03/10 03:01:37;;;;;;;23.20;18.00;;;2.40;95.10;;;;;;4974613;28;20052;-72
2022/03/10 03:04:03;;;;;;;20.33;17.37;;;2.40;95.20;;;;;;4986523;28;20080;-72
2022/03/10 03:06:29;;;;;;;22.07;17.20;;;2.40;95.30;;;;;;4989556;28;20470;-72
2022/03/10 03:08:54;;;;;;;20.83;17.63;;;2.50;95.30;;;;;;4997088;28;20628;-72
2022/03/10 03:11:20;;;;;;;20.97;18.10;;;2.50;95.20;;;;;;4991581;28;20133;-72
2022/03/10 03:13:46;;;;;;;23.07;16.50;;;2.50;94.90;;;;;;4960928;28;20136;-72
2022/03/10 03:16:12;;;;;;;21.10;16.53;;;2.60;94.60;;;;;;4952190;28;20034;-72
2022/03/10 03:18:38;;;;;;;21.43;17.07;;;2.70;94.30;;;;;;4993229;28;20496;-72
2022/03/10 03:21:04;;;;;;;21.73;16.80;;;2.70;94.00;;;;;;4974284;28;20148;-72
2022/03/10 03:23:30;;;;;;;22.77;15.97;;;2.70;93.70;;;;;;4977697;28;20049;-72
2022/03/10 03:25:56;;;;;;;20.77;16.73;;;2.70;93.50;;;;;;4998124;28;20451;-72
2022/03/10 03:28:24;;;;;;;18.97;15.80;;;2.80;93.40;;;;;;4995194;28;20100;-72
2022/03/10 03:30:50;;;;;;;21.40;16.50;;;2.80;93.40;;;;;;4975996;28;20129;-72
2022/03/10 03:33:17;;;;;;;21.10;17.27;;;2.70;93.20;;;;;;4971364;28;20144;-72
2022/03/10 03:35:43;;;;;;;21.83;16.67;;;2.70;93.40;;;;;;4984476;28;20058;-72
2022/03/10 03:38:08;;;;;;;21.87;16.83;;;2.70;93.30;;;;;;4997471;28;20050;-72
2022/03/10 03:40:35;;;;;;;18.57;16.13;;;2.60;93.40;;;;;;4988123;28;20436;-72
2022/03/10 03:43:01;;;;;;;19.70;16.47;;;2.60;93.50;;;;;;4968964;28;20066;-72
2022/03/10 03:45:27;;;;;;;20.87;15.27;;;2.60;93.50;;;;;;4954114;28;20396;-72
2022/03/10 03:47:54;;;;;;;18.80;15.87;;;2.60;93.60;;;;;;5000861;28;20058;-73
2022/03/10 03:50:20;;;;;;;19.10;16.20;;;2.60;93.40;;;;;;4964821;28;20132;-72
2022/03/10 03:52:46;;;;;;;19.43;16.10;;;2.60;93.40;;;;;;4994155;28;20054;-72
2022/03/10 03:55:12;;;;;;;20.30;16.20;;;2.50;93.40;;;;;;4997386;28;20043;-73
2022/03/10 03:57:38;;;;;;;19.80;15.63;;;2.50;93.50;;;;;;4979455;28;20054;-72
2022/03/10 04:00:06;;;;;;;19.47;15.67;;;2.50;93.50;;;;;;4981386;28;20535;-72
2022/03/10 04:02:32;;;;;;;20.20;15.97;;;2.50;93.70;;;;;;4997921;28;20073;-73
2022/03/10 04:04:58;;;;;;;21.30;15.53;;;2.40;93.90;;;;;;4997416;28;20136;-72
2022/03/10 04:07:23;;;;;;;20.83;15.40;;;2.40;93.90;;;;;;4992188;28;20072;-72
2022/03/10 04:09:49;;;;;;;20.13;15.37;;;2.40;94.00;;;;;;4995754;28;20048;-73
2022/03/10 04:12:15;;;;;;;19.80;16.70;;;2.30;94.00;;;;;;4987029;28;20088;-72
2022/03/10 04:14:41;;;;;;;19.67;15.63;;;2.30;93.90;;;;;;4975111;28;20061;-72
2022/03/10 04:17:07;;;;;;;21.70;16.07;;;2.30;93.80;;;;;;4953921;28;20046;-72
2022/03/10 04:19:32;;;;;;;20.00;16.10;;;2.30;93.90;;;;;;4975726;28;20574;-72
2022/03/10 04:21:59;;;;;;;20.03;15.63;;;2.40;93.90;;;;;;4990981;28;20049;-72
2022/03/10 04:24:24;;;;;;;19.67;15.73;;;2.30;94.00;;;;;;4990467;28;20057;-72
2022/03/10 04:26:50;;;;;;;19.40;15.27;;;2.20;94.20;;;;;;4986063;28;20046;-72
2022/03/10 04:29:16;;;;;;;19.30;16.10;;;2.20;94.40;;;;;;4985771;28;20400;-72
2022/03/10 04:31:42;;;;;;;18.57;15.40;;;2.20;94.50;;;;;;4976566;28;20412;-72
2022/03/10 04:34:08;;;;;;;20.47;15.77;;;2.10;94.40;;;;;;5014539;28;20034;-72
2022/03/10 04:36:34;;;;;;;21.70;16.67;;;2.10;94.30;;;;;;4971716;28;20121;-72
2022/03/10 04:39:01;;;;;;;20.50;16.10;;;2.10;94.20;;;;;;4989102;28;20112;-72
2022/03/10 04:41:27;;;;;;;20.90;15.10;;;2.10;94.40;;;;;;4972574;28;20408;-72
2022/03/10 04:43:53;;;;;;;20.23;15.93;;;2.10;94.40;;;;;;4972856;28;20102;-72
2022/03/10 04:46:19;;;;;;;21.90;15.63;;;2.10;94.30;;;;;;4969480;28;20505;-72
2022/03/10 04:48:45;;;;;;;19.00;15.60;;;2.10;94.30;;;;;;4985375;28;20034;-72
2022/03/10 04:51:10;;;;;;;18.93;15.20;;;2.10;94.30;;;;;;4956244;28;20046;-72
2022/03/10 04:53:36;;;;;;;18.70;14.57;;;2.10;94.30;;;;;;5002543;28;20056;-72
2022/03/10 04:56:03;;;;;;;19.43;14.20;;;2.10;94.50;;;;;;4985232;28;20061;-72
2022/03/10 04:58:28;;;;;;;18.20;15.23;;;2.00;94.50;;;;;;5006896;28;20465;-72
2022/03/10 05:00:54;;;;;;;19.83;15.40;;;2.10;94.40;;;;;;4990969;28;20054;-72
2022/03/10 05:03:20;;;;;;;20.97;15.67;;;2.10;94.40;;;;;;4976544;28;20045;-72
2022/03/10 05:05:48;;;;;;;18.17;15.60;;;2.10;94.40;;;;;;4988471;28;20046;-72
2022/03/10 05:08:14;;;;;;;17.87;14.80;;;2.10;94.60;;;;;;4974801;28;20549;-72
2022/03/10 05:10:40;;;;;;;18.53;15.53;;;2.00;94.80;;;;;;4960957;28;20049;-72
2022/03/10 05:13:07;;;;;;;21.30;16.10;;;2.10;95.00;;;;;;4971498;28;20521;-72
2022/03/10 05:15:33;;;;;;;19.57;15.50;;;2.00;95.20;;;;;;4995359;28;20129;-72
2022/03/10 05:18:04;;;;;;;18.37;14.93;;;2.00;95.30;;;;;;4988508;28;20050;-72
2022/03/10 05:20:31;;;;;;;20.35;16.00;;;2.00;95.60;;;;;;4993164;28;20061;-72
2022/03/10 05:23:06;;;;;;;19.27;15.77;;;1.90;95.80;;;;;;4994829;28;20132;-73
2022/03/10 05:25:37;;;;;;;18.97;15.10;;;1.90;95.80;;;;;;4971304;28;20168;-72
2022/03/10 05:28:04;;;;;;;19.33;16.40;;;1.90;95.90;;;;;;4978074;28;20058;-72
2022/03/10 05:30:30;;;;;;;18.43;15.60;;;1.90;96.00;;;;;;4959039;28;20126;-72
2022/03/10 05:32:56;;;;;;;20.73;14.73;;;1.90;95.90;;;;;;4967224;28;20444;-73
2022/03/10 05:35:22;;;;;;;19.07;15.40;;;1.90;95.90;;;;;;4993707;28;20050;-72
2022/03/10 05:37:48;;;;;;;20.00;15.50;;;1.90;96.00;;;;;;4999682;28;20682;-72
2022/03/10 05:40:17;;;;;;;20.43;16.40;;;1.90;96.00;;;;;;4982562;28;20443;-72
2022/03/10 05:42:44;;;;;;;21.83;16.40;;;1.90;96.20;;;;;;4982936;28;20053;-72
2022/03/10 05:45:12;;;;;;;20.77;16.13;;;1.90;96.40;;;;;;4963559;28;20123;-72
2022/03/10 05:47:39;;;;;;;21.03;16.20;;;1.90;96.60;;;;;;4998189;28;20057;-73
2022/03/10 05:50:06;;;;;;;20.80;16.27;;;1.80;97.00;;;;;;4974317;28;20042;-72
2022/03/10 05:52:32;;;;;;;18.90;16.40;;;1.80;96.90;;;;;;4987357;28;20125;-72
2022/03/10 05:54:58;;;;;;;21.20;16.60;;;1.90;97.00;;;;;;4993641;28;20117;-72
2022/03/10 05:57:24;;;;;;;20.37;16.33;;;1.80;97.00;;;;;;4952667;28;20967;-73
2022/03/10 05:59:50;;;;;;;19.13;16.80;;;1.80;97.20;;;;;;4988812;28;20614;-72
2022/03/10 06:02:16;;;;;;;18.00;15.83;;;1.80;97.20;;;;;;4980798;28;20049;-72
2022/03/10 06:04:43;;;;;;;20.03;16.23;;;1.80;97.20;;;;;;4976075;28;20050;-73
2022/03/10 06:07:08;;;;;;;21.10;16.57;;;1.90;97.30;;;;;;5005903;28;20054;-72
2022/03/10 06:09:34;;;;;;;21.53;16.63;;;1.90;97.30;;;;;;4970228;28;20133;-72
2022/03/10 06:12:01;;;;;;;18.23;16.30;;;1.90;97.20;;;;;;4987463;28;20141;-72
2022/03/10 06:14:27;;;;;;;21.00;17.03;;;2.00;97.20;;;;;;4959335;28;20049;-72
2022/03/10 06:16:53;;;;;;;21.03;17.30;;;2.00;97.30;;;;;;4988572;28;20069;-72
2022/03/10 06:19:19;;;;;;;21.07;16.63;;;2.00;97.30;;;;;;4982500;28;20053;-72
2022/03/10 06:21:46;;;;;;;21.33;16.97;;;2.00;97.30;;;;;;4988773;28;20064;-72
2022/03/10 06:24:12;;;;;;;18.90;16.20;;;2.00;97.50;;;;;;4976469;28;20730;-72
2022/03/10 06:26:38;;;;;;;20.37;16.40;;;2.10;97.40;;;;;;4967615;28;20054;-72
2022/03/10 06:29:05;;;;;;;21.77;17.03;;;2.20;97.30;;;;;;4988524;28;20116;-72
2022/03/10 06:31:31;;;;;;;21.57;16.73;;;2.20;97.20;;;;;;4960985;28;20086;-72
2022/03/10 06:33:58;;;;;;;20.63;17.50;;;2.30;97.10;;;;;;4985628;28;20715;-72
2022/03/10 06:36:27;;;;;;;21.30;15.57;;;2.40;96.90;;;;;;4990801;28;20125;-72
2022/03/10 06:38:53;;;;;;;20.10;17.47;;;2.40;96.70;;;;;;4986493;28;20089;-72
2022/03/10 06:41:20;;;;;;;20.23;16.83;;;2.40;96.60;;;;;;4996411;28;20123;-73
2022/03/10 06:43:45;;;;;;;19.57;17.17;;;2.50;96.40;;;;;;4974273;28;20766;-72
2022/03/10 06:46:11;;;;;;;23.37;17.67;;;2.50;96.30;;;;;;4984377;28;20040;-73
2022/03/10 06:48:37;;;;;;;21.10;17.17;;;2.70;96.20;;;;;;4966924;28;20662;-73
2022/03/10 06:51:04;;;;;;;21.03;16.83;;;2.70;96.20;;;;;;4979505;28;20121;-73
2022/03/10 06:53:30;;;;;;;20.33;16.10;;;2.70;96.10;;;;;;4991520;28;20061;-73
2022/03/10 06:55:59;;;;;;;20.83;16.53;;;2.80;96.10;;;;;;4996651;28;20043;-73
2022/03/10 06:58:28;;;;;;;21.40;17.30;;;2.80;95.90;;;;;;4980948;28;20046;-73
2022/03/10 07:00:54;;;;;;;22.67;16.83;;;2.90;95.40;;;;;;4981367;28;20401;-73
2022/03/10 07:03:21;;;;;;;19.67;16.37;;;3.00;95.00;;;;;;4981680;28;20037;-73
2022/03/10 07:05:47;;;;;;;22.30;16.33;;;3.10;94.50;;;;;;4980447;28;20049;-73
2022/03/10 07:08:13;;;;;;;22.43;16.63;;;3.20;94.30;;;;;;4989340;28;20050;-73
2022/03/10 07:10:39;;;;;;;21.40;16.40;;;3.20;94.20;;;;;;4979646;28;20046;-73
2022/03/10 07:13:06;;;;;;;19.80;16.27;;;3.40;94.00;;;;;;4966003;28;20046;-73
2022/03/10 07:15:32;;;;;;;21.40;16.70;;;3.40;93.90;;;;;;4980975;28;20039;-73
2022/03/10 07:17:58;;;;;;;20.97;16.23;;;3.50;94.00;;;;;;4979721;28;20390;-73
2022/03/10 07:20:27;;;;;;;21.93;16.13;;;3.60;93.30;;;;;;4981848;28;20556;-73
2022/03/10 07:22:53;;;;;;;19.77;15.87;;;3.70;93.40;;;;;;4975992;28;20551;-74
2022/03/10 07:25:20;;;;;;;19.67;16.17;;;3.70;92.90;;;;;;4981661;28;20057;-73
2022/03/10 07:27:46;;;;;;;18.27;15.60;;;3.80;92.80;;;;;;4996629;28;20045;-73
2022/03/10 07:30:12;;;;;;;20.93;16.47;;;4.00;92.80;;;;;;4972560;28;20073;-73
2022/03/10 07:32:38;;;;;;;21.80;15.93;;;4.00;92.60;;;;;;4964659;28;20098;-73
2022/03/10 07:35:04;;;;;;;19.50;15.33;;;4.10;92.50;;;;;;4967879;28;20065;-73
2022/03/10 07:37:30;;;;;;;22.03;16.30;;;4.20;92.40;;;;;;4976456;28;20054;-73
2022/03/10 07:39:56;;;;;;;20.10;16.17;;;4.40;92.10;;;;;;4982445;28;20038;-73
2022/03/10 07:42:22;;;;;;;18.97;15.33;;;4.50;91.70;;;;;;4934365;28;20365;-73
2022/03/10 07:44:47;;;;;;;21.40;16.27;;;4.60;91.40;;;;;;4963486;28;20168;-74
2022/03/10 07:47:13;;;;;;;19.13;15.27;;;4.70;91.20;;;;;;4996679;28;20516;-73
2022/03/10 07:49:39;;;;;;;19.80;16.43;;;4.80;91.00;;;;;;4965987;28;20050;-74
2022/03/10 07:52:06;;;;;;;20.93;16.70;;;4.90;90.70;;;;;;4977146;28;20056;-73
2022/03/10 07:54:33;;;;;;;18.17;16.20;;;5.00;90.90;;;;;;4970477;28;20046;-73
2022/03/10 07:56:59;;;;;;;21.33;16.93;;;5.10;90.60;;;;;;4966769;28;20443;-73
2022/03/10 07:59:25;;;;;;;19.73;16.23;;;5.20;90.50;;;;;;4962480;28;20038;-73
2022/03/10 08:01:50;;;;;;;20.08;16.08;;;5.30;90.40;;;;;;4971499;28;20124;-74
2022/03/10 08:04:17;;;;;;;17.77;15.40;;;5.50;90.30;;;;;;4970120;28;20561;-73
2022/03/10 08:06:43;;;;;;;19.27;15.20;;;5.60;89.70;;;;;;4981552;28;20052;-74
2022/03/10 08:09:10;;;;;;;20.60;15.80;;;5.80;88.60;;;;;;4984533;28;20034;-73
2022/03/10 08:11:38;;;;;;;20.23;16.15;;;6.00;88.50;;;;;;4990007;28;20089;-74
2022/03/10 08:14:04;;;;;;;19.55;14.85;;;6.20;88.10;;;;;;4971550;28;20053;-74
2022/03/10 08:16:31;;;;;;;19.20;15.33;;;6.30;86.50;;;;;;4980684;28;20042;-75
2022/03/10 08:19:00;;;;;;;19.55;14.85;;;6.50;84.30;;;;;;4987127;28;20184;-73
2022/03/10 08:21:29;;;;;;;20.15;14.85;;;6.70;83.50;;;;;;4985468;28;20042;-73
2022/03/10 08:23:58;;;;;;;23.83;15.23;;;6.90;81.00;;;;;;4986031;28;20509;-74
2022/03/10 08:26:24;;;;;;;23.42;15.38;;;7.00;80.10;;;;;;4997645;28;20523;-74
2022/03/10 08:28:52;;;;;;;19.63;15.20;;;7.20;79.50;;;;;;4968929;28;20062;-74
2022/03/10 08:31:19;;;;;;;19.75;15.52;;;7.30;79.00;;;;;;4969458;28;20054;-75
2022/03/10 08:33:45;;;;;;;19.48;15.27;;;7.50;78.10;;;;;;5002968;28;20405;-75
2022/03/10 08:36:11;;;;;;;18.33;14.70;;;7.60;78.60;;;;;;4961537;28;20046;-75
2022/03/10 08:38:38;;;;;;;19.95;15.75;;;7.70;77.50;;;;;;4986627;28;20038;-75
2022/03/10 08:41:03;;;;;;;19.08;15.93;;;7.90;76.30;;;;;;4965619;28;20058;-75
2022/03/10 08:43:31;;;;;;;20.38;15.05;;;8.00;75.40;;;;;;4956263;28;20104;-75
2022/03/10 08:45:57;;;;;;;19.65;16.17;;;8.20;74.80;;;;;;5010478;28;20172;-75
2022/03/10 08:48:24;;;;;;;18.50;15.23;;;8.40;75.70;;;;;;4969701;28;20042;-75
2022/03/10 08:50:50;;;;;;;18.52;14.73;;;8.50;73.80;;;;;;4986582;28;20081;-75
2022/03/10 08:53:17;;;;;;;18.20;14.50;;;8.60;72.40;;;;;;4986229;28;20543;-76
2022/03/10 08:55:43;;;;;;;17.80;15.07;;;8.70;72.10;;;;;;4970200;28;20501;-75
2022/03/10 08:58:09;;;;;;;17.83;14.55;;;8.80;71.70;;;;;;4989688;28;20079;-74
2022/03/10 09:00:35;;;;;;;20.70;15.15;;;8.90;70.50;;;;;;4985534;28;20052;-72
2022/03/10 09:03:01;;;;;;;19.95;14.90;;;8.90;70.30;;;;;;4984906;28;20070;-72
2022/03/10 09:05:27;;;;;;;18.08;14.95;;;9.00;69.90;;;;;;4988148;28;20483;-72
2022/03/10 09:07:53;;;;;;;18.88;14.88;;;9.10;69.60;;;;;;4979064;28;20050;-72
2022/03/10 09:10:19;;;;;;;20.23;15.15;;;9.20;68.40;;;;;;5001057;28;20116;-72
2022/03/10 09:12:45;;;;;;;23.27;15.50;;;9.20;67.70;;;;;;4976494;28;20057;-72
2022/03/10 09:15:11;;;;;;;19.27;15.15;;;9.30;67.30;;;;;;4979983;28;20125;-72
2022/03/10 09:17:37;;;;;;;19.95;14.63;;;9.30;66.80;;;;;;4975928;28;20481;-72
2022/03/10 09:20:05;;;;;;;20.42;15.30;;;9.40;67.80;;;;;;4986822;28;20046;-72
2022/03/10 09:22:31;;;;;;;19.88;15.25;;;9.50;66.60;;;;;;4980884;28;20125;-72
2022/03/10 09:24:57;;;;;;;19.05;14.68;;;9.60;66.00;;;;;;4985975;28;20041;-72
2022/03/10 09:27:23;;;;;;;18.95;14.80;;;9.60;65.90;;;;;;4993894;28;20062;-72
2022/03/10 09:29:49;;;;;;;19.33;15.30;;;9.70;65.50;;;;;;4984474;28;20058;-73
2022/03/10 09:32:15;;;;;;;18.65;15.30;;;9.70;64.90;;;;;;4987911;28;20037;-72
2022/03/10 09:34:41;;;;;;;20.63;14.93;;;9.80;65.00;;;;;;4974329;28;20057;-73
2022/03/10 09:37:06;;;;;;;17.10;14.43;;;9.90;64.70;;;;;;4970305;28;20456;-72
2022/03/10 09:39:33;;;;;;;19.88;15.50;;;10.00;65.40;;;;;;5003349;28;20137;-73
2022/03/10 09:42:01;;;;;;;20.90;15.65;;;10.10;64.60;;;;;;4979298;28;20073;-73
2022/03/10 09:44:28;;;;;;;19.10;14.63;;;10.30;63.40;;;;;;4984534;28;20039;-72
2022/03/10 09:46:54;;;;;;;18.25;14.95;;;10.40;62.80;;;;;;4967862;28;20046;-72
2022/03/10 09:49:21;;;;;;;18.33;14.35;;;10.50;62.80;;;;;;4994899;28;20866;-72
2022/03/10 09:51:50;;;;;;;20.38;14.10;;;10.60;62.90;;;;;;4974733;28;20069;-72
2022/03/10 09:54:16;;;;;;;22.15;14.93;;;10.60;63.00;;;;;;4979127;28;20132;-72
2022/03/10 09:56:43;;;;;;;19.95;15.75;;;10.70;64.30;;;;;;4984199;28;20405;-73
2022/03/10 09:59:10;;;;;;;19.77;15.40;;;10.70;63.20;;;;;;4973243;28;20186;-73
2022/03/10 10:01:36;;;;;;;20.77;15.38;;;10.80;62.30;;;;;;4984251;28;20603;-71
2022/03/10 10:04:04;;;;;;;19.58;15.65;;;10.90;61.80;;;;;;4975778;28;20118;-71
2022/03/10 10:06:30;;;;;;;22.42;17.00;;;11.00;60.90;;;;;;4992642;28;20045;-71
2022/03/10 10:08:57;;;;;;;19.35;15.10;;;11.00;58.80;;;;;;4985304;28;20119;-72
2022/03/10 10:11:38;;;;;;;19.38;15.80;;;11.10;58.80;;;;;;4977068;28;20050;-71
2022/03/10 10:14:04;;;;;;;18.60;15.50;;;11.20;57.80;;;;;;4989714;28;20054;-72
2022/03/10 10:16:29;;;;;;;21.27;16.23;;;11.20;58.00;;;;;;4983552;28;20524;-71
2022/03/10 10:18:57;;;;;;;19.08;14.90;;;11.30;57.20;;;;;;4984442;28;20506;-71
2022/03/10 10:21:24;;;;;;;21.17;16.00;;;11.40;57.20;;;;;;4991223;28;20062;-71
2022/03/10 10:23:53;;;;;;;21.33;15.88;;;11.40;56.70;;;;;;4983253;28;20050;-71
2022/03/10 10:26:20;;;;;;;20.25;16.10;;;11.60;56.80;;;;;;4983199;28;20093;-71
2022/03/10 10:28:48;;;;;;;21.08;15.55;;;11.60;56.70;;;;;;4989651;28;20124;-71
2022/03/10 10:31:16;;;;;;;21.08;15.32;;;11.70;56.80;;;;;;5000193;28;20181;-71
2022/03/10 10:33:55;;;;;;;20.48;16.30;;;11.70;56.60;;;;;;5003024;28;20448;-71
2022/03/10 10:36:30;;;;;;;22.92;16.67;;;11.80;56.70;;;;;;4986088;28;20104;-71
2022/03/10 10:39:18;;;;;;;21.50;15.50;;;11.80;55.60;;;;;;4990791;28;20103;-72
2022/03/10 10:41:46;;;;;;;22.92;16.20;;;11.90;54.20;;;;;;4981836;28;20331;-72
2022/03/10 10:44:16;;;;;;;20.08;16.25;;;11.90;55.40;;;;;;5015254;28;20096;-73
2022/03/10 10:46:48;;;;;;;21.88;16.77;;;12.00;55.20;;;;;;4995304;28;20034;-73
2022/03/10 10:49:22;;;;;;;20.17;16.35;;;12.10;53.20;;;;;;4985989;28;20516;-72
2022/03/10 10:51:58;;;;;;;19.73;15.98;;;12.10;53.10;;;;;;4993148;28;20046;-71
2022/03/10 10:54:28;;;;;;;22.75;17.38;;;12.10;54.30;;;;;;4971481;28;20289;-72
2022/03/10 10:57:01;;;;;;;22.52;16.63;;;12.20;54.50;;;;;;4983083;28;20057;-71
2022/03/10 10:59:41;;;;;;;20.85;16.60;;;12.30;54.90;;;;;;4990064;28;20322;-71
2022/03/10 11:02:21;;;;;;;20.73;16.17;;;12.40;55.30;;;;;;4990221;28;20488;-71
2022/03/10 11:04:53;;;;;;;20.85;16.17;;;12.40;55.00;;;;;;4988286;28;20053;-71
2022/03/10 11:07:21;;;;;;;21.63;17.17;;;12.50;54.70;;;;;;4968721;28;20505;-71
2022/03/10 11:09:48;;;;;;;19.95;16.65;;;12.50;54.90;;;;;;4985710;28;20090;-71
2022/03/10 11:12:16;;;;;;;20.88;17.23;;;12.50;54.50;;;;;;4986189;28;20066;-71
2022/03/10 11:14:43;;;;;;;20.42;16.67;;;12.50;54.70;;;;;;4999431;28;20571;-71
2022/03/10 11:17:12;;;;;;;20.40;15.95;;;12.60;52.90;;;;;;4970359;28;20053;-71
2022/03/10 11:19:42;;;;;;;21.50;16.65;;;12.70;52.60;;;;;;4965643;28;20038;-71
2022/03/10 11:22:13;;;;;;;23.70;16.48;;;12.70;52.50;;;;;;4978070;28;20605;-71
2022/03/10 11:24:57;;;;;;;22.30;17.33;;;12.80;53.80;;;;;;5000410;28;20511;-71
2022/03/10 11:27:28;;;;;;;20.10;16.55;;;12.90;54.40;;;;;;4988657;28;20054;-74
2022/03/10 11:29:55;;;;;;;19.88;16.10;;;13.00;53.90;;;;;;4987430;28;20042;-71
2022/03/10 11:32:28;;;;;;;24.83;17.88;;;13.10;53.70;;;;;;5012171;28;20125;-72
2022/03/10 11:34:56;;;;;;;24.20;17.27;;;13.20;53.30;;;;;;5018270;28;20127;-72
2022/03/10 11:37:50;;;;;;;20.90;16.15;;;13.20;53.80;;;;;;4988734;28;20058;-72
2022/03/10 11:40:19;;;;;;;22.38;16.70;;;13.20;53.50;;;;;;4971187;28;20116;-72
2022/03/10 11:43:00;;;;;;;25.83;17.17;;;13.30;52.60;;;;;;4972340;28;20058;-72
2022/03/10 11:45:30;;;;;;;24.55;17.63;;;13.40;51.90;;;;;;4985847;28;20053;-71
2022/03/10 11:48:23;;;;;;;23.50;16.23;;;13.40;50.20;;;;;;4974928;28;20049;-73
2022/03/10 11:50:50;;;;;;;20.98;15.57;;;13.40;50.20;;;;;;4996217;28;20050;-72
2022/03/10 11:53:15;;;;;;;25.05;17.77;;;13.50;51.00;;;;;;4992040;28;20573;-74
2022/03/10 11:55:53;;;;;;;23.25;17.45;;;13.70;50.10;;;;;;4996656;28;20598;-71
2022/03/10 11:58:40;;;;;;;21.88;16.95;;;13.80;50.80;;;;;;4983613;28;20115;-71
2022/03/10 12:01:05;;;;;;;23.27;16.40;;;13.80;51.60;;;;;;4985075;28;20598;-70
2022/03/10 12:03:35;;;;;;;20.88;16.60;;;13.90;50.70;;;;;;4989902;28;20081;-72
2022/03/10 12:06:07;;;;;;;22.48;16.10;;;14.00;49.40;;;;;;4990349;28;20056;-71
2022/03/10 12:08:38;;;;;;;21.13;17.10;;;14.00;50.20;;;;;;4991374;28;20038;-77
2022/03/10 12:11:23;;;;;;;23.50;17.45;;;14.10;50.20;;;;;;5001060;28;20042;-76
2022/03/10 12:13:50;;;;;;;21.17;16.80;;;14.20;49.40;;;;;;4972299;28;20070;-77
2022/03/10 12:16:27;;;;;;;23.05;16.75;;;14.20;49.30;;;;;;4979283;28;20300;-76
2022/03/10 12:18:53;;;;;;;22.98;17.20;;;14.30;49.20;;;;;;5004146;28;20575;-77
2022/03/10 12:21:25;;;;;;;25.35;17.65;;;14.30;49.00;;;;;;4968308;28;20042;-74
2022/03/10 12:23:54;;;;;;;23.13;18.23;;;14.40;47.70;;;;;;4988064;28;20115;-78
2022/03/10 12:26:42;;;;;;;26.38;17.58;;;14.50;47.60;;;;;;4998110;28;20081;-77
2022/03/10 12:29:10;;;;;;;21.15;17.02;;;14.60;47.80;;;;;;4975609;28;20046;-77
2022/03/10 12:31:38;;;;;;;22.20;16.83;;;14.60;47.90;;;;;;4991756;28;20101;-76
2022/03/10 12:34:06;;;;;;;23.25;17.23;;;14.70;47.80;;;;;;5011842;28;20045;-74
2022/03/10 12:36:42;;;;;;;25.23;17.58;;;14.80;47.70;;;;;;4990265;28;20034;-71
2022/03/10 12:39:17;;;;;;;22.52;17.02;;;14.80;47.60;;;;;;4996445;28;20053;-70
2022/03/10 12:41:48;;;;;;;23.63;17.83;;;14.90;46.70;;;;;;4978945;28;20089;-77
2022/03/10 12:44:18;;;;;;;24.33;16.60;;;14.90;46.80;;;;;;4980327;28;20084;-72
2022/03/10 12:46:44;;;;;;;22.35;16.48;;;14.80;46.40;;;;;;4992736;28;20057;-70
2022/03/10 12:49:29;;;;;;;21.27;16.92;;;14.80;46.60;;;;;;4987985;28;20068;-76